This is the latest recevied weather packets stored in our database for station/object VE3DVC. If no packets are shown the sender has not sent any weather packets the latest 10 day(s).
| Time | Temp. | Humidity | Pressure | Rain* | Wind** | Luminosity | Snow |
|---|---|---|---|---|---|---|---|
| 1777594297 | 6.67° C | 89% | 1013.1 hPa | 0 mm | - | - | - |
| 1777593577 | 7.22° C | 89% | 1013 hPa | 0 mm | - | - | - |
| 1777592857 | 7.22° C | 89% | 1012.8 hPa | 0.25 mm | - | - | - |
| 1777591828 | 7.22° C | 89% | 1012.7 hPa | 0.25 mm | - | - | - |
| 1777591108 | 7.22° C | 88% | 1012.7 hPa | 0.25 mm | - | - | - |
| 1777589477 | 7.78° C | 83% | 1012.6 hPa | 0 mm | - | - | - |
| 1777588757 | 8.33° C | 80% | 1012.7 hPa | 0 mm | - | - | - |
| 1777588037 | 8.89° C | 77% | 1012.5 hPa | 0 mm | - | - | - |
| 1777587317 | 9.44° C | 79% | 1012.4 hPa | 0 mm | - | - | - |
| 1777586597 | 9.44° C | 79% | 1012.3 hPa | 0 mm | - | - | - |
| 1777585877 | 9.44° C | 81% | 1012.3 hPa | 0 mm | - | - | - |
| 1777585157 | 8.89° C | 82% | 1012.2 hPa | 0 mm | - | - | - |
| 1777584417 | 8.89° C | 82% | 1012.2 hPa | 0 mm | - | - | - |
| 1777583696 | 8.33° C | 81% | 1012.1 hPa | 0 mm | - | - | - |
| 1777582976 | 8.33° C | 79% | 1012.1 hPa | 0 mm | - | - | - |
| 1777580913 | 9.44° C | 75% | 1012.2 hPa | 0 mm | - | - | - |
| 1777580193 | 10° C | 75% | 1012.1 hPa | 0 mm | - | - | - |
| 1777579473 | 10° C | 72% | 1012.1 hPa | 0 mm | - | - | - |
| 1777578753 | 10° C | 71% | 1012.1 hPa | 0 mm | - | - | - |
| 1777578033 | 10° C | 70% | 1012.1 hPa | 0 mm | - | - | - |
| 1777577313 | 10° C | 73% | 1012 hPa | 0 mm | - | - | - |
| 1777576283 | 10° C | 75% | 1012.1 hPa | 0 mm | - | - | - |
| 1777575563 | 10° C | 74% | 1012.2 hPa | 0 mm | - | - | - |
| 1777574843 | 10° C | 74% | 1012.2 hPa | 0 mm | - | - | - |
| 1777574123 | 8.89° C | 77% | 1012.3 hPa | 0 mm | - | - | - |
* Rain latest hour (hover to see other rain measurements)
** Current wind speed in m/s (hover to see current wind gust speed)